Terminal Aerodrome Forecast
Issued by NWS Wilmington, OH

Current Version | Previous Version | Graphics & Text | Print | Product List | Glossary On
Versions: 1 2 3 4 5 6 7 8 9 10 11 12 13 14
000
FTUS41 KILN 040500
TAFILN
TAF
KILN 040520Z 0406/0506 19005KT P6SM FEW200
     FM041500 22012G22KT P6SM SCT050 BKN150
     FM042300 21009KT P6SM BKN060 BKN250=

USA.gov is the U.S. government's official web portal to all federal, state and local government web resources and services.